Overview Statistics Trail Chart Weather Telemetry Raw packets
 

This is the latest recevied weather packets stored in our database for station/object K6CEG. If no packets are shown the sender has not sent any weather packets the latest 10 day(s).

<< 68 69 70 71 72 73 74 >>
Time Temp. Humidity Pressure Rain* Wind** Luminosity Snow
1788194678 26.11° C 60% 1016 hPa 0 mm - 463 W/m² -
1788194373 26.11° C 58% 1016.1 hPa 0 mm - 444 W/m² -
1788194068 26.67° C 57% 1015.9 hPa 0 mm - 449 W/m² -
1788193767 25.56° C 60% 1015.8 hPa 0 mm - 410 W/m² -
1788193463 26.11° C 60% 1015.8 hPa 0 mm - 124 W/m² -
1788193161 26.11° C 59% 1016 hPa 0 mm - 362 W/m² -
1788192858 25.56° C 59% 1015.8 hPa 0 mm - 314 W/m² -
1788192553 25.56° C 59% 1015.6 hPa 0 mm - 315 W/m² -
1788192248 25.56° C 60% 1016 hPa 0 mm - 311 W/m² -
1788191943 25° C 61% 1016 hPa 0 mm - 278 W/m² -
1788191643 24.44° C 62% 1015.8 hPa 0 mm - 263 W/m² -
1788191338 23.89° C 64% 1015.8 hPa 0 mm - 239 W/m² -
1788191035 23.89° C 63% 1015.7 hPa 0 mm - 232 W/m² -
1788190733 23.33° C 66% 1015.7 hPa 0 mm - 202 W/m² -
1788190429 23.33° C 66% 1015.7 hPa 0 mm - 201 W/m² -
1788190125 23.33° C 65% 1015.9 hPa 0 mm - 195 W/m² -
1788189820 23.33° C 65% 1015.9 hPa 0 mm - 176 W/m² -
1788189521 22.78° C 65% 1015.7 hPa 0 mm - 143 W/m² -
1788189219 22.78° C 66% 1015.8 hPa 0 mm - 189 W/m² -
1788188915 22.22° C 67% 1015.8 hPa 0 mm - 105 W/m² -
1788188610 21.67° C 68% 1015.8 hPa 0 mm - 95 W/m² -
1788188309 21.67° C 68% 1015.7 hPa 0 mm - 85 W/m² -
1788188006 21.67° C 69% 1015.7 hPa 0 mm - 66 W/m² -
1788187701 21.67° C 69% 1015.4 hPa 0 mm - 64 W/m² -
1788187397 21.11° C 70% 1015.6 hPa 0 mm - 72 W/m² -

* Rain latest hour (hover to see other rain measurements)
** Current wind speed in m/s (hover to see current wind gust speed)